createdAt,value
2022-08-27T00:02:56.025Z,17.48
2022-08-27T00:05:58.230Z,17.46
2022-08-27T00:09:00.343Z,17.52
2022-08-27T00:12:03.036Z,17.49
2022-08-27T00:15:06.763Z,17.42
2022-08-27T00:18:09.007Z,17.38
2022-08-27T00:21:11.669Z,17.49
2022-08-27T00:24:13.950Z,17.58
2022-08-27T00:27:16.271Z,17.67
2022-08-27T00:30:20.663Z,17.69
2022-08-27T00:33:23.259Z,17.63
2022-08-27T00:36:25.588Z,17.67
2022-08-27T00:39:27.735Z,17.64
2022-08-27T00:42:31.051Z,17.64
2022-08-27T00:45:37.830Z,17.60
2022-08-27T00:48:39.981Z,17.52
2022-08-27T00:51:42.185Z,17.41
2022-08-27T00:54:44.522Z,17.16
2022-08-27T00:57:51.390Z,16.95
2022-08-27T01:00:53.839Z,16.90
2022-08-27T01:03:58.951Z,16.85
2022-08-27T01:07:01.235Z,16.94
2022-08-27T01:10:05.407Z,16.89
2022-08-27T01:13:09.584Z,16.77
2022-08-27T01:16:11.763Z,16.77
2022-08-27T01:19:50.352Z,16.75
2022-08-27T01:23:46.361Z,16.72
2022-08-27T01:26:48.546Z,16.55
2022-08-27T01:29:50.768Z,16.64
2022-08-27T01:32:52.966Z,16.36
2022-08-27T01:35:55.098Z,16.04
2022-08-27T01:38:57.539Z,16.23
2022-08-27T01:42:19.922Z,16.26
2022-08-27T01:45:28.655Z,16.32
2022-08-27T01:48:30.738Z,16.17
2022-08-27T01:51:32.822Z,16.12
2022-08-27T01:54:35.127Z,16.18
2022-08-27T01:57:37.479Z,15.95
2022-08-27T02:00:42.112Z,16.00
2022-08-27T02:03:44.674Z,15.58
2022-08-27T02:06:47.066Z,15.78
2022-08-27T02:09:49.128Z,15.37
2022-08-27T02:12:52.660Z,15.42
2022-08-27T02:15:55.646Z,15.52
2022-08-27T02:18:58.103Z,15.43
2022-08-27T02:22:01.380Z,15.70
2022-08-27T02:25:04.028Z,15.35
2022-08-27T02:28:06.424Z,15.20
2022-08-27T02:31:08.811Z,15.06
2022-08-27T02:34:10.944Z,15.17
2022-08-27T02:37:13.076Z,15.31
2022-08-27T02:40:17.658Z,14.98
2022-08-27T02:43:25.265Z,14.95
2022-08-27T02:46:27.775Z,15.04
2022-08-27T02:49:30.415Z,15.22
2022-08-27T02:52:32.491Z,15.07
2022-08-27T02:55:34.608Z,14.84
2022-08-27T02:58:39.431Z,14.82
2022-08-27T03:01:41.598Z,15.01
2022-08-27T03:04:44.479Z,15.22
2022-08-27T03:07:46.588Z,15.60
2022-08-27T03:10:49.015Z,15.71
2022-08-27T03:13:51.537Z,15.54
2022-08-27T03:16:53.680Z,15.67
2022-08-27T03:19:55.746Z,16.09
2022-08-27T03:22:57.830Z,16.50
2022-08-27T03:26:02.033Z,16.43
2022-08-27T03:29:04.142Z,16.48
2022-08-27T03:32:07.097Z,16.77
2022-08-27T03:35:09.708Z,16.77
2022-08-27T03:38:11.879Z,16.69
2022-08-27T03:41:14.299Z,16.66
2022-08-27T03:44:21.757Z,16.21
2022-08-27T03:47:24.167Z,16.10
2022-08-27T03:50:26.240Z,16.11
2022-08-27T03:53:28.460Z,15.71
2022-08-27T03:56:30.547Z,15.33
2022-08-27T03:59:33.347Z,15.47
2022-08-27T04:02:35.461Z,15.20
2022-08-27T04:05:37.588Z,15.46
2022-08-27T04:08:39.654Z,15.67
2022-08-27T04:11:41.787Z,15.71
2022-08-27T04:14:43.863Z,15.74
2022-08-27T04:17:46.050Z,15.82
2022-08-27T04:20:49.047Z,15.93
2022-08-27T04:23:51.126Z,15.78
2022-08-27T04:26:55.585Z,15.40
2022-08-27T04:29:58.759Z,15.13
2022-08-27T04:33:00.946Z,15.17
2022-08-27T04:36:08.163Z,15.18
2022-08-27T04:39:10.232Z,15.07
2022-08-27T04:42:12.323Z,14.99
2022-08-27T04:45:14.924Z,15.08
2022-08-27T04:48:17.907Z,15.49
2022-08-27T04:51:20.893Z,15.73
2022-08-27T04:54:32.399Z,15.78
2022-08-27T04:57:37.890Z,15.75
2022-08-27T05:01:01.954Z,15.31
2022-08-27T05:04:04.260Z,15.34
2022-08-27T05:07:08.143Z,15.63
2022-08-27T05:10:10.254Z,15.05
2022-08-27T05:13:12.466Z,14.86
2022-08-27T05:16:21.270Z,14.82
2022-08-27T05:19:23.395Z,14.64
2022-08-27T05:22:25.511Z,15.05
2022-08-27T05:25:27.790Z,14.95
2022-08-27T05:28:29.886Z,15.10
2022-08-27T05:31:32.205Z,15.20
2022-08-27T05:34:34.316Z,15.34
2022-08-27T05:37:36.805Z,15.74
2022-08-27T05:40:40.482Z,16.43
2022-08-27T05:43:46.494Z,16.46
2022-08-27T05:46:51.370Z,16.55
2022-08-27T05:49:54.454Z,16.52
2022-08-27T05:52:56.515Z,16.32
2022-08-27T05:55:58.627Z,16.25
2022-08-27T05:59:19.403Z,16.14
2022-08-27T06:02:21.763Z,15.83
2022-08-27T06:05:24.030Z,16.03
2022-08-27T06:08:26.299Z,16.35
2022-08-27T06:11:28.635Z,16.28
2022-08-27T06:14:30.718Z,15.78
2022-08-27T06:17:32.798Z,15.83
2022-08-27T06:20:35.202Z,15.87
2022-08-27T06:23:37.405Z,15.87
2022-08-27T06:26:40.812Z,15.42
2022-08-27T06:29:43.164Z,15.67
2022-08-27T06:32:45.487Z,15.86
2022-08-27T06:35:47.576Z,15.94
2022-08-27T06:38:49.882Z,16.18
2022-08-27T06:41:52.085Z,16.19
2022-08-27T06:44:56.494Z,16.18
2022-08-27T06:47:58.710Z,16.05
2022-08-27T06:51:00.922Z,16.15
2022-08-27T06:54:06.504Z,16.41
2022-08-27T06:57:08.856Z,16.67
2022-08-27T07:00:12.488Z,16.64
2022-08-27T07:03:14.711Z,16.86
2022-08-27T07:06:17.196Z,17.09
2022-08-27T07:09:20.676Z,17.05
2022-08-27T07:12:22.756Z,17.33
2022-08-27T07:15:33.143Z,17.71
2022-08-27T07:18:38.648Z,17.55
2022-08-27T07:21:42.678Z,17.62
2022-08-27T07:24:44.766Z,17.83
2022-08-27T07:27:50.007Z,17.83
2022-08-27T07:30:53.094Z,17.50
2022-08-27T07:33:55.291Z,17.14
2022-08-27T07:36:57.359Z,17.13
2022-08-27T07:39:59.449Z,17.06
2022-08-27T07:43:19.940Z,17.22
2022-08-27T07:46:25.152Z,17.10
2022-08-27T07:49:28.567Z,17.15
2022-08-27T07:52:30.709Z,17.05
2022-08-27T07:55:32.822Z,17.31
2022-08-27T07:58:35.534Z,17.49
2022-08-27T08:01:37.677Z,17.48
2022-08-27T08:04:39.787Z,17.73
2022-08-27T08:07:41.917Z,17.79
2022-08-27T08:10:44.033Z,17.98
2022-08-27T08:13:46.281Z,17.79
2022-08-27T08:16:48.498Z,18.22
2022-08-27T08:20:15.362Z,18.21
2022-08-27T08:23:13.324Z,17.89
2022-08-27T08:26:15.916Z,18.37
2022-08-27T08:29:18.521Z,18.08
2022-08-27T08:32:21.436Z,18.33
2022-08-27T08:35:24.468Z,18.61
2022-08-27T08:38:28.133Z,19.26
2022-08-27T08:41:48.650Z,19.77
2022-08-27T08:44:52.920Z,19.67
2022-08-27T08:48:17.522Z,20.27
2022-08-27T08:51:31.454Z,20.37
2022-08-27T08:54:33.598Z,20.40
2022-08-27T08:58:12.961Z,20.94
2022-08-27T09:01:19.561Z,20.73
2022-08-27T09:04:21.673Z,20.89
2022-08-27T09:07:47.263Z,20.70
2022-08-27T09:11:21.087Z,21.07
2022-08-27T09:14:49.892Z,20.82
2022-08-27T09:17:52.459Z,21.03
2022-08-27T09:21:29.607Z,21.50
2022-08-27T09:24:56.096Z,21.54
2022-08-27T09:28:01.498Z,21.67
2022-08-27T09:31:09.431Z,21.72
2022-08-27T09:34:13.072Z,21.65
2022-08-27T09:37:27.331Z,22.15
2022-08-27T09:40:44.524Z,22.43
2022-08-27T09:44:00.797Z,22.07
2022-08-27T09:47:03.692Z,22.29
2022-08-27T09:50:08.428Z,22.36
2022-08-27T09:53:45.427Z,22.62
2022-08-27T09:56:49.267Z,23.08
2022-08-27T09:59:53.909Z,22.88
2022-08-27T10:02:56.039Z,23.39
2022-08-27T10:05:58.216Z,23.33
2022-08-27T10:09:14.788Z,23.05
2022-08-27T10:12:33.684Z,23.08
2022-08-27T10:15:59.058Z,22.97
2022-08-27T10:19:16.840Z,22.76
2022-08-27T10:22:27.762Z,22.66
2022-08-27T10:26:02.663Z,22.25
2022-08-27T10:29:39.459Z,22.62
2022-08-27T10:33:23.403Z,22.27
2022-08-27T10:37:21.547Z,22.40
2022-08-27T10:40:35.956Z,21.82
2022-08-27T10:44:16.919Z,22.99
2022-08-27T10:47:51.081Z,23.17
2022-08-27T10:51:08.823Z,23.36
2022-08-27T10:54:25.371Z,24.31
2022-08-27T10:57:53.914Z,23.03
2022-08-27T11:01:01.847Z,23.58
2022-08-27T11:04:15.107Z,24.62
2022-08-27T11:07:55.995Z,24.71
2022-08-27T11:11:35.038Z,24.50
2022-08-27T11:14:49.018Z,25.41
2022-08-27T11:18:27.690Z,25.10
2022-08-27T11:22:14.805Z,23.15
2022-08-27T11:25:34.082Z,23.38
2022-08-27T11:28:39.599Z,24.01
2022-08-27T11:31:50.085Z,24.95
2022-08-27T11:34:56.010Z,25.55
2022-08-27T11:38:54.798Z,25.77
2022-08-27T11:42:02.604Z,24.31
2022-08-27T11:45:20.454Z,24.56
2022-08-27T11:48:28.748Z,25.57
2022-08-27T11:51:37.045Z,25.89
2022-08-27T11:55:09.151Z,24.48
2022-08-27T11:58:23.415Z,24.77
2022-08-27T12:01:29.196Z,25.13
2022-08-27T12:04:31.271Z,24.25
2022-08-27T12:07:35.888Z,25.12
2022-08-27T12:11:11.955Z,26.30
2022-08-27T12:14:41.466Z,26.84
2022-08-27T12:18:17.503Z,27.27
2022-08-27T12:21:29.483Z,26.25
2022-08-27T12:24:46.933Z,24.35
2022-08-27T12:28:05.970Z,26.26
2022-08-27T12:31:08.073Z,24.79
2022-08-27T12:34:26.117Z,27.10
2022-08-27T12:37:33.839Z,26.13
2022-08-27T12:40:54.039Z,26.31
2022-08-27T12:44:13.306Z,27.92
2022-08-27T12:47:17.118Z,28.04
2022-08-27T12:50:28.098Z,27.35
2022-08-27T12:53:57.206Z,25.93
2022-08-27T12:57:04.906Z,25.73
2022-08-27T13:00:19.637Z,26.42
2022-08-27T13:03:37.776Z,27.96
2022-08-27T13:06:44.904Z,26.91
2022-08-27T13:09:47.021Z,26.73
2022-08-27T13:12:59.591Z,27.56
2022-08-27T13:16:02.467Z,26.18
2022-08-27T13:19:06.128Z,26.08
2022-08-27T13:22:08.206Z,27.96
2022-08-27T13:25:31.157Z,26.56
2022-08-27T13:28:34.090Z,26.33
2022-08-27T13:31:36.340Z,25.44
2022-08-27T13:34:39.671Z,25.60
2022-08-27T13:37:48.148Z,25.56
2022-08-27T13:41:25.358Z,25.60
2022-08-27T13:44:40.931Z,24.77
2022-08-27T13:47:47.811Z,26.40
2022-08-27T13:50:55.320Z,26.03
2022-08-27T13:54:16.112Z,25.71
2022-08-27T13:57:30.361Z,24.78
2022-08-27T14:00:33.660Z,25.27
2022-08-27T14:03:47.327Z,25.57
2022-08-27T14:06:49.974Z,25.61
2022-08-27T14:10:07.531Z,27.84
2022-08-27T14:13:17.283Z,26.69
2022-08-27T14:16:28.326Z,27.42
2022-08-27T14:19:36.694Z,25.22
2022-08-27T14:22:39.427Z,24.43
2022-08-27T14:25:41.598Z,24.31
2022-08-27T14:28:44.423Z,23.36
2022-08-27T14:31:46.735Z,22.88
2022-08-27T14:34:48.875Z,22.99
2022-08-27T14:37:51.029Z,23.61
2022-08-27T14:40:54.346Z,23.13
2022-08-27T14:43:56.842Z,23.74
2022-08-27T14:47:00.165Z,24.21
2022-08-27T14:50:02.959Z,24.94
2022-08-27T14:53:05.139Z,23.90
2022-08-27T14:56:07.306Z,28.33
2022-08-27T14:59:09.459Z,29.07
2022-08-27T15:02:13.756Z,25.96
2022-08-27T15:05:18.215Z,25.59
2022-08-27T15:08:25.707Z,25.45
2022-08-27T15:11:32.272Z,25.21
2022-08-27T15:14:36.050Z,25.41
2022-08-27T15:17:38.283Z,28.52
2022-08-27T15:20:41.434Z,28.26
2022-08-27T15:23:44.590Z,27.02
2022-08-27T15:26:46.755Z,25.48
2022-08-27T15:29:48.822Z,26.04
2022-08-27T15:32:50.962Z,26.98
2022-08-27T15:35:53.069Z,27.19
2022-08-27T15:38:56.226Z,27.55
2022-08-27T15:42:06.967Z,27.19
2022-08-27T15:45:11.438Z,27.08
2022-08-27T15:48:13.714Z,28.05
2022-08-27T15:51:15.954Z,27.60
2022-08-27T15:54:18.176Z,28.48
2022-08-27T15:57:20.538Z,28.15
2022-08-27T16:00:23.552Z,27.03
2022-08-27T16:03:29.893Z,28.21
2022-08-27T16:06:38.734Z,26.93
2022-08-27T16:09:42.128Z,26.89
2022-08-27T16:12:44.508Z,26.65
2022-08-27T16:15:46.912Z,26.66
2022-08-27T16:18:49.031Z,26.49
2022-08-27T16:21:52.378Z,25.61
2022-08-27T16:24:54.783Z,26.82
2022-08-27T16:28:00.955Z,25.31
2022-08-27T16:31:05.444Z,25.24
2022-08-27T16:34:19.131Z,25.30
2022-08-27T16:37:21.340Z,25.56
2022-08-27T16:40:23.511Z,24.80
2022-08-27T16:43:26.915Z,24.82
2022-08-27T16:46:29.168Z,24.43
2022-08-27T16:49:49.844Z,24.19
2022-08-27T16:52:51.996Z,23.41
2022-08-27T16:55:54.139Z,23.58
2022-08-27T16:58:56.391Z,23.02
2022-08-27T17:01:58.517Z,22.97
2022-08-27T17:05:12.381Z,22.96
2022-08-27T17:08:25.605Z,23.50
2022-08-27T17:11:30.728Z,23.12
2022-08-27T17:14:37.764Z,22.73
2022-08-27T17:17:40.642Z,22.92
2022-08-27T17:20:43.899Z,22.49
2022-08-27T17:23:48.742Z,21.92
2022-08-27T17:26:50.815Z,21.96
2022-08-27T17:29:52.974Z,22.15
2022-08-27T17:32:55.053Z,21.87
2022-08-27T17:35:58.471Z,22.25
2022-08-27T17:39:02.574Z,23.91
2022-08-27T17:42:04.988Z,23.48
2022-08-27T17:45:07.884Z,22.48
2022-08-27T17:48:12.354Z,21.84
2022-08-27T17:51:19.665Z,21.62
2022-08-27T17:54:36.133Z,20.95
2022-08-27T17:57:40.669Z,21.08
2022-08-27T18:00:44.949Z,20.86
2022-08-27T18:03:47.705Z,20.63
2022-08-27T18:06:50.211Z,20.93
2022-08-27T18:09:52.410Z,20.46
2022-08-27T18:12:55.502Z,20.43
2022-08-27T18:15:57.647Z,20.23
2022-08-27T18:18:59.790Z,20.57
2022-08-27T18:22:01.875Z,20.51
2022-08-27T18:25:05.336Z,20.26
2022-08-27T18:28:09.718Z,20.05
2022-08-27T18:31:15.058Z,19.93
2022-08-27T18:34:20.768Z,19.84
2022-08-27T18:37:23.685Z,19.88
2022-08-27T18:40:28.948Z,19.83
2022-08-27T18:43:35.122Z,19.61
2022-08-27T18:46:37.948Z,19.36
2022-08-27T18:49:40.143Z,19.34
2022-08-27T18:52:43.118Z,19.26
2022-08-27T18:55:45.366Z,19.16
2022-08-27T18:58:49.205Z,19.21
2022-08-27T19:01:52.869Z,19.18
2022-08-27T19:04:55.194Z,19.13
2022-08-27T19:07:58.385Z,19.13
2022-08-27T19:11:01.145Z,19.11
2022-08-27T19:14:03.248Z,19.13
2022-08-27T19:17:05.398Z,19.23
2022-08-27T19:20:08.042Z,19.17
2022-08-27T19:23:10.150Z,19.09
2022-08-27T19:26:18.093Z,19.22
2022-08-27T19:29:20.239Z,19.32
2022-08-27T19:32:22.498Z,19.34
2022-08-27T19:35:24.672Z,19.66
2022-08-27T19:38:27.896Z,19.81
2022-08-27T19:41:29.970Z,19.62
2022-08-27T19:44:32.038Z,19.76
2022-08-27T19:47:34.280Z,19.65
2022-08-27T19:50:36.414Z,19.55
2022-08-27T19:53:38.523Z,19.65
2022-08-27T19:56:40.660Z,19.81
2022-08-27T19:59:43.239Z,19.81
2022-08-27T20:02:45.410Z,19.78
2022-08-27T20:05:49.203Z,19.73
2022-08-27T20:08:51.287Z,19.77
2022-08-27T20:11:54.380Z,19.75
2022-08-27T20:14:56.447Z,19.99
2022-08-27T20:17:59.702Z,19.96
2022-08-27T20:21:05.753Z,19.70
2022-08-27T20:24:09.130Z,19.80
2022-08-27T20:27:11.219Z,19.77
2022-08-27T20:30:13.740Z,19.62
2022-08-27T20:33:16.725Z,19.80
2022-08-27T20:36:19.014Z,19.84
2022-08-27T20:39:21.092Z,19.95
2022-08-27T20:42:23.283Z,20.12
2022-08-27T20:45:25.587Z,19.86
2022-08-27T20:48:32.283Z,19.82
2022-08-27T20:51:51.169Z,19.81
2022-08-27T20:54:56.947Z,19.80
2022-08-27T20:58:17.414Z,19.74
2022-08-27T21:01:19.667Z,19.68
2022-08-27T21:04:21.775Z,19.85
2022-08-27T21:07:24.112Z,19.55
2022-08-27T21:10:26.212Z,19.40
2022-08-27T21:13:29.053Z,19.28
2022-08-27T21:16:31.664Z,19.07
2022-08-27T21:19:34.259Z,19.10
2022-08-27T21:22:36.531Z,19.10
2022-08-27T21:25:38.647Z,19.10
2022-08-27T21:28:42.358Z,19.05
2022-08-27T21:31:44.627Z,19.00
2022-08-27T21:34:46.767Z,18.93
2022-08-27T21:37:49.877Z,18.95
2022-08-27T21:40:51.962Z,18.81
2022-08-27T21:43:54.410Z,18.64
2022-08-27T21:46:57.191Z,18.46
2022-08-27T21:49:59.335Z,18.39
2022-08-27T21:53:01.415Z,18.44
2022-08-27T21:56:03.821Z,18.27
2022-08-27T21:59:06.352Z,18.19
2022-08-27T22:02:28.831Z,18.24
2022-08-27T22:05:30.622Z,18.13
2022-08-27T22:08:32.891Z,18.00
2022-08-27T22:11:35.224Z,17.95
2022-08-27T22:14:37.534Z,17.80
2022-08-27T22:17:39.631Z,17.91
2022-08-27T22:20:42.010Z,17.93
2022-08-27T22:23:45.055Z,17.95
2022-08-27T22:26:47.311Z,17.92
2022-08-27T22:29:49.395Z,17.91
2022-08-27T22:32:51.522Z,17.97
2022-08-27T22:35:53.608Z,17.95
2022-08-27T22:38:58.395Z,17.93
2022-08-27T22:42:05.967Z,17.75
2022-08-27T22:45:08.833Z,17.79
2022-08-27T22:48:12.508Z,17.77
2022-08-27T22:51:14.735Z,17.66
2022-08-27T22:54:17.762Z,17.66
2022-08-27T22:57:19.897Z,17.64
2022-08-27T23:00:34.386Z,17.62
2022-08-27T23:03:36.563Z,17.62
2022-08-27T23:06:38.742Z,17.63
2022-08-27T23:09:40.807Z,17.50
2022-08-27T23:12:45.090Z,17.31
2022-08-27T23:15:48.283Z,17.02
2022-08-27T23:18:50.448Z,16.61
2022-08-27T23:21:52.820Z,16.53
2022-08-27T23:25:13.833Z,16.50
2022-08-27T23:28:16.148Z,16.48
2022-08-27T23:31:19.037Z,16.44
2022-08-27T23:34:21.539Z,16.50
2022-08-27T23:37:24.054Z,16.53
2022-08-27T23:40:26.353Z,16.41
2022-08-27T23:43:28.551Z,16.35
2022-08-27T23:46:31.607Z,16.49
2022-08-27T23:49:34.089Z,16.42
2022-08-27T23:52:36.616Z,16.73
2022-08-27T23:55:40.410Z,16.74
2022-08-27T23:58:42.499Z,16.68
